createdAt,value
2019-05-06T00:01:09.241Z,1.30
2019-05-06T00:03:39.660Z,1.30
2019-05-06T00:06:10.041Z,1.20
2019-05-06T00:08:40.551Z,1.10
2019-05-06T00:11:10.831Z,1.10
2019-05-06T00:13:41.312Z,1.10
2019-05-06T00:16:14.200Z,1.10
2019-05-06T00:18:44.862Z,1.10
2019-05-06T00:21:15.409Z,1.00
2019-05-06T00:23:50.952Z,1.00
2019-05-06T00:26:36.186Z,0.90
2019-05-06T00:29:14.296Z,0.90
2019-05-06T00:31:44.653Z,0.80
2019-05-06T00:34:14.917Z,0.80
2019-05-06T00:36:45.247Z,0.90
2019-05-06T00:39:31.161Z,0.90
2019-05-06T00:42:09.664Z,1.10
2019-05-06T00:44:40.175Z,1.30
2019-05-06T00:47:10.503Z,1.50
2019-05-06T00:49:43.593Z,1.60
2019-05-06T00:52:14.091Z,1.70
2019-05-06T00:54:44.421Z,1.90
2019-05-06T00:57:14.858Z,2.10
2019-05-06T00:59:53.839Z,2.20
2019-05-06T01:02:34.276Z,2.40
2019-05-06T01:05:05.915Z,2.50
2019-05-06T01:07:45.492Z,2.60
2019-05-06T01:10:17.031Z,2.70
2019-05-06T01:13:14.459Z,2.80
2019-05-06T01:15:45.415Z,2.90
2019-05-06T01:18:17.371Z,3.00
2019-05-06T01:20:47.861Z,3.10
2019-05-06T01:23:18.305Z,3.20
2019-05-06T01:25:48.638Z,3.20
2019-05-06T01:28:18.920Z,3.30
2019-05-06T01:30:49.230Z,3.30
2019-05-06T01:33:19.585Z,3.30
2019-05-06T01:35:50.091Z,3.30
2019-05-06T01:38:25.965Z,3.40
2019-05-06T01:41:27.606Z,3.40
2019-05-06T01:44:04.386Z,3.40
2019-05-06T01:46:36.901Z,3.40
2019-05-06T01:49:07.726Z,3.40
2019-05-06T01:51:38.676Z,3.50
2019-05-06T01:54:09.351Z,3.40
2019-05-06T01:56:41.772Z,3.40
2019-05-06T01:59:13.967Z,3.40
2019-05-06T02:01:56.889Z,3.50
2019-05-06T02:04:17.578Z,3.50
2019-05-06T02:06:54.505Z,3.40
2019-05-06T02:09:31.610Z,3.40
2019-05-06T02:12:04.361Z,3.40
2019-05-06T02:14:35.995Z,3.50
2019-05-06T02:17:07.006Z,3.60
2019-05-06T02:19:38.455Z,3.60
2019-05-06T02:22:18.306Z,3.60
2019-05-06T02:24:56.281Z,3.60
2019-05-06T02:27:27.583Z,3.60
2019-05-06T02:30:08.674Z,3.60
2019-05-06T02:33:01.305Z,3.60
2019-05-06T02:35:51.551Z,3.70
2019-05-06T02:38:32.579Z,3.70
2019-05-06T02:40:57.811Z,3.80
2019-05-06T02:43:30.380Z,3.80
2019-05-06T02:46:03.975Z,3.80
2019-05-06T02:48:57.986Z,3.90
2019-05-06T02:51:33.369Z,3.90
2019-05-06T02:54:03.571Z,3.90
2019-05-06T02:56:34.449Z,3.90
2019-05-06T02:59:05.651Z,3.90
2019-05-06T03:01:36.218Z,3.90
2019-05-06T03:04:06.702Z,3.90
2019-05-06T03:06:37.542Z,3.90
2019-05-06T03:09:13.413Z,3.90
2019-05-06T03:11:44.422Z,3.90
2019-05-06T03:14:15.280Z,3.90
2019-05-06T03:16:45.785Z,4.00
2019-05-06T03:19:16.743Z,4.00
2019-05-06T03:21:59.124Z,3.90
2019-05-06T03:24:55.158Z,4.00
2019-05-06T03:27:25.924Z,4.00
2019-05-06T03:29:56.613Z,4.00
2019-05-06T03:32:30.621Z,4.00
2019-05-06T03:35:19.240Z,4.00
2019-05-06T03:37:33.488Z,4.00
2019-05-06T03:40:04.938Z,4.00
2019-05-06T03:42:35.829Z,4.00
2019-05-06T03:45:14.773Z,4.00
2019-05-06T03:47:54.367Z,4.00
2019-05-06T03:50:27.125Z,4.00
2019-05-06T03:52:58.916Z,4.00
2019-05-06T03:55:30.607Z,4.00
2019-05-06T03:58:04.120Z,4.00
2019-05-06T04:00:38.242Z,4.00
2019-05-06T04:03:09.033Z,4.00
2019-05-06T04:05:39.773Z,4.10
2019-05-06T04:08:26.500Z,4.10
2019-05-06T04:10:58.066Z,4.10
2019-05-06T04:13:29.632Z,4.10
2019-05-06T04:16:35.136Z,4.10
2019-05-06T04:19:16.679Z,4.20
2019-05-06T04:21:59.074Z,4.30
2019-05-06T04:24:43.075Z,4.30
2019-05-06T04:27:58.895Z,4.30
2019-05-06T04:30:33.424Z,4.30
2019-05-06T04:33:04.859Z,4.40
2019-05-06T04:35:36.132Z,4.40
2019-05-06T04:38:07.345Z,4.40
2019-05-06T04:40:39.371Z,4.50
2019-05-06T04:43:13.069Z,4.50
2019-05-06T04:45:43.719Z,4.60
2019-05-06T04:48:15.502Z,4.60
2019-05-06T04:50:46.682Z,4.70
2019-05-06T04:53:17.817Z,4.70
2019-05-06T04:55:54.003Z,4.80
2019-05-06T04:58:25.157Z,4.80
2019-05-06T05:00:57.940Z,4.90
2019-05-06T05:03:29.477Z,5.00
2019-05-06T05:06:04.989Z,5.00
2019-05-06T05:08:39.132Z,5.00
2019-05-06T05:11:45.539Z,5.10
2019-05-06T05:14:42.304Z,5.20
2019-05-06T05:17:34.531Z,5.30
2019-05-06T05:20:12.559Z,5.40
2019-05-06T05:22:43.378Z,5.40
2019-05-06T05:25:16.876Z,5.40
2019-05-06T05:27:49.008Z,5.50
2019-05-06T05:30:32.703Z,5.60
2019-05-06T05:33:04.217Z,5.60
2019-05-06T05:35:36.358Z,5.70
2019-05-06T05:38:08.995Z,5.70
2019-05-06T05:40:42.828Z,5.80
2019-05-06T05:43:27.975Z,5.90
2019-05-06T05:46:00.022Z,6.00
2019-05-06T05:48:44.627Z,6.10
2019-05-06T05:51:16.988Z,6.20
2019-05-06T05:53:53.466Z,6.40
2019-05-06T05:56:26.329Z,6.60
2019-05-06T05:58:58.520Z,6.60
2019-05-06T06:01:32.565Z,6.80
2019-05-06T06:04:24.268Z,6.80
2019-05-06T06:06:55.588Z,7.00
2019-05-06T06:09:32.745Z,6.90
2019-05-06T06:12:07.106Z,7.10
2019-05-06T06:15:02.254Z,7.30
2019-05-06T06:18:04.963Z,7.30
2019-05-06T06:21:17.956Z,7.50
2019-05-06T06:23:41.994Z,7.60
2019-05-06T06:26:15.202Z,7.50
2019-05-06T06:28:47.352Z,7.60
2019-05-06T06:31:26.421Z,7.80
2019-05-06T06:34:05.953Z,7.70
2019-05-06T06:36:52.622Z,7.90
2019-05-06T06:39:36.082Z,8.20
2019-05-06T06:42:09.863Z,8.40
2019-05-06T06:44:43.034Z,8.10
2019-05-06T06:47:14.822Z,7.80
2019-05-06T06:49:53.664Z,8.10
2019-05-06T06:52:25.453Z,8.20
2019-05-06T06:54:58.312Z,8.20
2019-05-06T06:57:43.917Z,8.10
2019-05-06T07:00:33.083Z,8.20
2019-05-06T07:03:16.617Z,8.40
2019-05-06T07:06:05.412Z,8.50
2019-05-06T07:09:38.884Z,8.80
2019-05-06T07:12:13.256Z,8.80
2019-05-06T07:14:45.630Z,9.00
2019-05-06T07:17:19.170Z,9.00
2019-05-06T07:19:55.678Z,9.10
2019-05-06T07:22:37.072Z,9.40
2019-05-06T07:25:12.684Z,9.30
2019-05-06T07:27:45.798Z,9.20
2019-05-06T07:30:37.023Z,9.20
2019-05-06T07:33:27.732Z,9.40
2019-05-06T07:36:02.176Z,9.50
2019-05-06T07:38:34.867Z,9.50
2019-05-06T07:41:14.824Z,9.70
2019-05-06T07:43:53.952Z,9.70
2019-05-06T07:46:43.754Z,9.40
2019-05-06T07:49:25.042Z,9.70
2019-05-06T07:52:02.881Z,9.90
2019-05-06T07:54:46.339Z,9.90
2019-05-06T07:57:22.106Z,9.80
2019-05-06T07:59:57.164Z,9.90
2019-05-06T08:02:29.343Z,10.00
2019-05-06T08:05:02.581Z,10.40
2019-05-06T08:07:55.735Z,10.50
2019-05-06T08:10:29.723Z,10.40
2019-05-06T08:13:13.109Z,10.10
2019-05-06T08:15:49.531Z,10.30
2019-05-06T08:18:22.032Z,10.70
2019-05-06T08:20:54.257Z,10.80
2019-05-06T08:23:42.931Z,10.90
2019-05-06T08:26:33.168Z,10.30
2019-05-06T08:29:05.953Z,10.40
2019-05-06T08:31:39.222Z,10.00
2019-05-06T08:34:14.214Z,9.80
2019-05-06T08:37:09.383Z,9.50
2019-05-06T08:40:26.529Z,9.30
2019-05-06T08:43:06.617Z,9.40
2019-05-06T08:48:29.313Z,9.60
2019-05-06T08:51:22.628Z,10.20
2019-05-06T08:57:18.349Z,9.70
2019-05-06T08:59:53.526Z,9.50
2019-05-06T09:02:27.155Z,10.00
2019-05-06T09:05:00.054Z,10.30
2019-05-06T09:07:33.132Z,10.40
2019-05-06T09:10:18.987Z,10.50
2019-05-06T09:12:52.564Z,10.60
2019-05-06T09:15:25.228Z,10.60
2019-05-06T09:18:16.598Z,10.60
2019-05-06T09:21:02.978Z,10.90
2019-05-06T09:23:45.860Z,11.20
2019-05-06T09:26:33.530Z,10.90
2019-05-06T09:29:23.086Z,10.90
2019-05-06T09:31:58.219Z,10.90
2019-05-06T09:34:46.983Z,11.10
2019-05-06T09:37:23.565Z,11.30
2019-05-06T09:39:57.311Z,10.90
2019-05-06T09:42:51.938Z,10.90
2019-05-06T09:45:24.052Z,11.10
2019-05-06T09:48:13.760Z,10.80
2019-05-06T09:50:58.839Z,11.10
2019-05-06T09:53:56.318Z,11.50
2019-05-06T09:57:22.467Z,12.00
2019-05-06T10:00:07.579Z,12.00
2019-05-06T10:02:43.390Z,12.30
2019-05-06T10:05:30.743Z,12.20
2019-05-06T10:08:05.524Z,12.30
2019-05-06T10:10:55.275Z,12.80
2019-05-06T10:13:14.428Z,12.70
2019-05-06T10:15:47.544Z,12.60
2019-05-06T10:18:40.697Z,12.50
2019-05-06T10:21:13.570Z,12.60
2019-05-06T10:24:07.798Z,12.20
2019-05-06T10:26:47.669Z,12.50
2019-05-06T10:29:26.104Z,12.70
2019-05-06T10:32:08.055Z,12.40
2019-05-06T10:34:40.179Z,12.80
2019-05-06T10:37:25.934Z,12.30
2019-05-06T10:40:25.730Z,12.00
2019-05-06T10:43:34.054Z,11.80
2019-05-06T10:46:08.697Z,11.50
2019-05-06T10:48:53.053Z,11.80
2019-05-06T10:51:36.475Z,12.10
2019-05-06T10:54:12.178Z,12.20
2019-05-06T10:56:57.363Z,12.00
2019-05-06T10:59:32.711Z,11.70
2019-05-06T11:02:23.494Z,11.90
2019-05-06T11:05:02.909Z,12.40
2019-05-06T11:07:52.321Z,12.80
2019-05-06T11:10:38.082Z,13.50
2019-05-06T11:13:15.158Z,13.20
2019-05-06T11:15:48.160Z,13.30
2019-05-06T11:18:27.739Z,13.80
2019-05-06T11:21:03.415Z,13.90
2019-05-06T11:23:47.444Z,14.30
2019-05-06T11:26:27.871Z,14.20
2019-05-06T11:29:21.313Z,14.20
2019-05-06T11:32:02.827Z,13.30
2019-05-06T11:34:58.045Z,13.60
2019-05-06T11:37:59.599Z,13.50
2019-05-06T11:40:33.096Z,13.50
2019-05-06T11:43:08.380Z,13.80
2019-05-06T11:45:43.885Z,13.40
2019-05-06T11:48:15.535Z,13.70
2019-05-06T11:50:48.950Z,13.30
2019-05-06T11:53:27.689Z,13.40
2019-05-06T11:55:55.247Z,13.50
2019-05-06T11:58:58.414Z,13.40
2019-05-06T12:01:45.593Z,13.20
2019-05-06T12:04:16.400Z,13.20
2019-05-06T12:06:48.380Z,13.40
2019-05-06T12:09:22.232Z,13.30
2019-05-06T12:12:27.900Z,13.20
2019-05-06T12:14:59.366Z,13.10
2019-05-06T12:17:48.714Z,13.20
2019-05-06T12:20:24.485Z,13.50
2019-05-06T12:22:58.778Z,13.70
2019-05-06T12:25:36.391Z,13.40
2019-05-06T12:28:32.696Z,13.50
2019-05-06T12:31:19.729Z,13.20
2019-05-06T12:33:58.495Z,12.80
2019-05-06T12:36:32.792Z,12.70
2019-05-06T12:39:29.451Z,12.70
2019-05-06T12:42:29.621Z,13.30
2019-05-06T12:45:34.880Z,13.20
2019-05-06T12:48:39.394Z,13.10
2019-05-06T12:51:13.314Z,13.60
2019-05-06T12:54:19.393Z,13.90
2019-05-06T12:56:58.246Z,14.20
2019-05-06T12:59:30.521Z,14.00
2019-05-06T13:02:03.425Z,14.40
2019-05-06T13:04:51.454Z,14.40
2019-05-06T13:07:20.974Z,14.30
2019-05-06T13:09:54.350Z,14.20
2019-05-06T13:12:28.614Z,14.00
2019-05-06T13:15:03.293Z,14.00
2019-05-06T13:17:34.434Z,13.80
2019-05-06T13:20:14.146Z,13.60
2019-05-06T13:22:53.480Z,13.80
2019-05-06T13:25:35.488Z,14.10
2019-05-06T13:28:10.040Z,14.10
2019-05-06T13:30:43.413Z,13.90
2019-05-06T13:34:04.642Z,13.70
2019-05-06T13:36:39.340Z,13.70
2019-05-06T13:39:14.878Z,13.30
2019-05-06T13:41:46.563Z,13.90
2019-05-06T13:44:22.727Z,14.00
2019-05-06T13:46:57.595Z,13.70
2019-05-06T13:49:44.328Z,13.50
2019-05-06T13:52:22.768Z,13.40
2019-05-06T13:55:06.352Z,13.60
2019-05-06T13:57:39.702Z,13.80
2019-05-06T14:00:16.731Z,13.50
2019-05-06T14:02:54.306Z,13.10
2019-05-06T14:05:33.655Z,13.10
2019-05-06T14:08:05.806Z,12.90
2019-05-06T14:10:43.072Z,12.70
2019-05-06T14:13:16.277Z,12.50
2019-05-06T14:15:53.567Z,12.50
2019-05-06T14:18:33.058Z,12.70
2019-05-06T14:21:03.935Z,12.70
2019-05-06T14:23:37.865Z,12.90
2019-05-06T14:26:24.791Z,13.50
2019-05-06T14:29:24.953Z,13.60
2019-05-06T14:32:00.370Z,13.60
2019-05-06T14:34:33.456Z,12.80
2019-05-06T14:37:06.079Z,12.50
2019-05-06T14:39:49.931Z,12.20
2019-05-06T14:42:16.185Z,12.20
2019-05-06T14:44:48.881Z,11.90
2019-05-06T14:50:30.237Z,11.90
2019-05-06T14:52:55.090Z,12.00
2019-05-06T14:55:32.776Z,12.00
2019-05-06T14:58:08.342Z,12.30
2019-05-06T15:00:42.578Z,12.70
2019-05-06T15:03:22.044Z,13.10
2019-05-06T15:05:56.551Z,13.20
2019-05-06T15:08:33.219Z,13.40
2019-05-06T15:11:05.927Z,13.50
2019-05-06T15:13:37.305Z,13.30
2019-05-06T15:16:13.201Z,13.20
2019-05-06T15:18:45.670Z,13.30
2019-05-06T15:21:37.179Z,13.20
2019-05-06T15:24:21.056Z,13.00
2019-05-06T15:26:52.181Z,12.80
2019-05-06T15:29:24.782Z,12.80
2019-05-06T15:32:17.789Z,12.50
2019-05-06T15:35:08.457Z,12.00
2019-05-06T15:37:53.444Z,11.30
2019-05-06T15:40:33.067Z,10.30
2019-05-06T15:43:23.014Z,9.90
2019-05-06T15:46:12.238Z,9.90
2019-05-06T15:48:44.086Z,9.80
2019-05-06T15:51:22.239Z,9.40
2019-05-06T15:53:58.386Z,9.20
2019-05-06T15:56:32.757Z,9.10
2019-05-06T15:59:04.185Z,9.00
2019-05-06T16:01:38.811Z,9.10
2019-05-06T16:04:22.710Z,9.20
2019-05-06T16:06:55.171Z,9.10
2019-05-06T16:09:28.036Z,9.20
2019-05-06T16:12:02.754Z,9.20
2019-05-06T16:14:37.423Z,9.50
2019-05-06T16:17:15.031Z,9.90
2019-05-06T16:19:46.422Z,10.20
2019-05-06T16:22:17.548Z,10.20
2019-05-06T16:24:55.464Z,10.00
2019-05-06T16:27:28.250Z,9.70
2019-05-06T16:30:03.591Z,9.40
2019-05-06T16:32:38.175Z,9.30
2019-05-06T16:35:11.938Z,9.10
2019-05-06T16:37:56.875Z,8.70
2019-05-06T16:40:39.105Z,8.50
2019-05-06T16:43:13.747Z,8.00
2019-05-06T16:45:53.137Z,7.70
2019-05-06T16:48:31.561Z,7.40
2019-05-06T16:51:04.757Z,7.40
2019-05-06T16:53:46.171Z,7.40
2019-05-06T16:56:38.343Z,7.40
2019-05-06T16:59:47.561Z,7.50
2019-05-06T17:02:26.712Z,7.50
2019-05-06T17:05:22.477Z,7.60
2019-05-06T17:08:02.800Z,7.60
2019-05-06T17:10:58.102Z,7.60
2019-05-06T17:13:37.725Z,7.90
2019-05-06T17:16:17.952Z,7.60
2019-05-06T17:19:00.310Z,7.60
2019-05-06T17:21:33.226Z,7.60
2019-05-06T17:24:12.852Z,7.50
2019-05-06T17:30:42.779Z,7.50
2019-05-06T17:33:36.371Z,7.60
2019-05-06T17:36:13.534Z,7.50
2019-05-06T17:38:53.728Z,7.50
2019-05-06T17:41:44.859Z,7.50
2019-05-06T17:44:12.046Z,7.50
2019-05-06T17:47:12.446Z,7.40
2019-05-06T17:49:45.010Z,7.30
2019-05-06T17:52:25.730Z,6.50
2019-05-06T17:54:57.071Z,6.20
2019-05-06T17:57:33.247Z,6.30
2019-05-06T18:00:22.502Z,6.30
2019-05-06T18:03:04.656Z,6.40
2019-05-06T18:05:44.901Z,6.40
2019-05-06T18:08:24.514Z,6.40
2019-05-06T18:10:57.063Z,6.50
2019-05-06T18:14:16.157Z,6.40
2019-05-06T18:16:56.576Z,6.40
2019-05-06T18:19:30.050Z,6.50
2019-05-06T18:22:10.162Z,6.40
2019-05-06T18:24:48.064Z,6.50
2019-05-06T18:27:26.275Z,6.60
2019-05-06T18:30:12.291Z,6.50
2019-05-06T18:32:49.197Z,6.60
2019-05-06T18:35:35.102Z,6.60
2019-05-06T18:38:15.771Z,6.60
2019-05-06T18:40:52.902Z,6.50
2019-05-06T18:43:26.214Z,6.50
2019-05-06T18:45:58.646Z,6.60
2019-05-06T18:48:48.844Z,6.60
2019-05-06T18:51:43.539Z,6.60
2019-05-06T18:54:26.312Z,6.60
2019-05-06T18:57:05.125Z,6.60
2019-05-06T19:00:35.377Z,6.60
2019-05-06T19:03:17.013Z,6.60
2019-05-06T19:05:53.045Z,6.60
2019-05-06T19:08:43.045Z,6.50
2019-05-06T19:11:16.980Z,6.50
2019-05-06T19:13:48.548Z,6.60
2019-05-06T19:16:22.210Z,6.50
2019-05-06T19:18:58.148Z,6.40
2019-05-06T19:21:31.914Z,6.40
2019-05-06T19:24:03.326Z,6.50
2019-05-06T19:26:38.312Z,6.50
2019-05-06T19:29:54.322Z,6.50
2019-05-06T19:32:25.148Z,6.40
2019-05-06T19:35:02.528Z,6.50
2019-05-06T19:37:34.523Z,6.40
2019-05-06T19:40:09.468Z,6.50
2019-05-06T19:43:13.534Z,6.50
2019-05-06T19:45:47.097Z,6.40
2019-05-06T19:48:24.702Z,6.50
2019-05-06T19:51:03.334Z,6.60
2019-05-06T19:53:37.179Z,6.50
2019-05-06T19:56:09.378Z,6.50
2019-05-06T19:58:46.042Z,6.50
2019-05-06T20:01:17.471Z,6.60
2019-05-06T20:03:48.686Z,6.60
2019-05-06T20:06:41.937Z,6.60
2019-05-06T20:09:46.241Z,6.60
2019-05-06T20:12:37.644Z,6.60
2019-05-06T20:15:27.261Z,6.60
2019-05-06T20:18:02.877Z,6.60
2019-05-06T20:20:35.338Z,6.60
2019-05-06T20:23:09.138Z,6.60
2019-05-06T20:25:42.628Z,6.60
2019-05-06T20:28:14.887Z,6.60
2019-05-06T20:30:47.660Z,6.60
2019-05-06T20:33:22.035Z,6.60
2019-05-06T20:35:56.012Z,6.60
2019-05-06T20:38:27.613Z,6.50
2019-05-06T20:40:58.817Z,6.50
2019-05-06T20:43:29.811Z,6.60
2019-05-06T20:46:02.748Z,6.60
2019-05-06T20:48:33.874Z,6.50
2019-05-06T20:51:05.237Z,6.50
2019-05-06T20:53:37.526Z,6.40
2019-05-06T20:56:09.036Z,6.50
2019-05-06T20:58:41.834Z,6.50
2019-05-06T21:01:29.360Z,6.40
2019-05-06T21:04:03.476Z,6.40
2019-05-06T21:06:35.577Z,6.40
2019-05-06T21:09:09.231Z,6.40
2019-05-06T21:11:42.097Z,6.40
2019-05-06T21:14:17.848Z,6.40
2019-05-06T21:16:49.948Z,6.40
2019-05-06T21:19:22.220Z,6.30
2019-05-06T21:21:56.933Z,6.30
2019-05-06T21:24:32.225Z,6.30
2019-05-06T21:27:03.346Z,6.30
2019-05-06T21:29:35.421Z,6.30
2019-05-06T21:32:06.761Z,6.20
2019-05-06T21:34:43.097Z,6.20
2019-05-06T21:37:13.522Z,6.20
2019-05-06T21:39:44.162Z,6.20
2019-05-06T21:42:16.705Z,6.20
2019-05-06T21:44:49.441Z,6.20
2019-05-06T21:47:20.052Z,6.10
2019-05-06T21:49:56.704Z,6.10
2019-05-06T21:52:38.899Z,6.10
2019-05-06T21:55:02.586Z,6.10
2019-05-06T21:57:36.788Z,6.10
2019-05-06T22:00:12.653Z,6.10
2019-05-06T22:02:46.302Z,6.10
2019-05-06T22:05:17.893Z,6.10
2019-05-06T22:07:52.573Z,6.10
2019-05-06T22:10:25.093Z,6.10
2019-05-06T22:12:56.428Z,6.00
2019-05-06T22:15:27.403Z,6.00
2019-05-06T22:17:58.406Z,6.00
2019-05-06T22:20:29.233Z,6.00
2019-05-06T22:23:00.082Z,6.00
2019-05-06T22:25:34.238Z,6.10
2019-05-06T22:28:12.411Z,6.10
2019-05-06T22:30:44.969Z,6.10
2019-05-06T22:33:18.661Z,6.10
2019-05-06T22:35:49.664Z,6.00
2019-05-06T22:38:24.091Z,5.90
2019-05-06T22:40:54.861Z,5.90
2019-05-06T22:43:25.948Z,5.90
2019-05-06T22:45:56.667Z,5.90
2019-05-06T22:48:27.552Z,5.80
2019-05-06T22:50:58.642Z,5.80
2019-05-06T22:53:32.847Z,5.70
2019-05-06T22:56:06.462Z,5.70
2019-05-06T22:58:37.227Z,5.60
2019-05-06T23:01:20.236Z,5.60
2019-05-06T23:03:52.642Z,5.50
2019-05-06T23:06:23.471Z,5.50
2019-05-06T23:08:54.963Z,5.50
2019-05-06T23:11:26.173Z,5.50
2019-05-06T23:13:58.492Z,5.50
2019-05-06T23:16:29.642Z,5.50
2019-05-06T23:19:02.116Z,5.50
2019-05-06T23:21:33.670Z,5.50
2019-05-06T23:24:04.653Z,5.50
2019-05-06T23:26:35.566Z,5.50
2019-05-06T23:29:12.952Z,5.50
2019-05-06T23:31:44.296Z,5.50
2019-05-06T23:34:15.602Z,5.50
2019-05-06T23:37:22.955Z,5.50
2019-05-06T23:40:38.056Z,5.50
2019-05-06T23:43:43.993Z,5.50
2019-05-06T23:46:52.915Z,5.50
2019-05-06T23:49:59.040Z,5.50
2019-05-06T23:53:05.568Z,5.50
2019-05-06T23:56:13.144Z,5.50
2019-05-06T23:58:44.227Z,5.50
